• Join FlightAware (Why Join?)
  • Login
  • US Flag 
08:20AM EST


 

Airport Tracker/Info


-or-


 

Live Flight TrackerFlight Track Log ✈ UAL139 ✈ 01-Aug-2014 ✈ KDEN - RJAA / NRT

Flight Track Log - Related Links

Times and Time Zones

All times are in EDT time to prevent confusion due to time zone crossing. See the UAL139 flight status page for this flight to view local times or setup timezone preferences in your user account.

Time Position Orientation Groundspeed Altitude Reporting Facility
EDT Latitude Longitude Course Direction KTS MPH feet Rate Location/Type
02:55PM 39.7917 -104.6933 265° West 213 245 7,100  Level FlightAware ADS-B (KEIK)
02:56PM 39.8000 -104.7167 270° West 241 277 7,400 960 Climbing Denver TRACON
02:56PM 39.7961 -104.7271 281° West 239 275 7,400 1,020 Level FlightAware ADS-B (KEIK)
02:56PM 39.8004 -104.7410 290° West 267 307 8,000 1,980 Climbing FlightAware ADS-B (KEIK)
02:56PM 39.8158 -104.7923 290° West 282 325 8,800 2,760 Climbing FlightAware ADS-B (KEIK)
02:57PM 39.8167 -104.8000 285° West 296 341 9,200 1,920 Climbing Denver TRACON
02:58PM 39.8481 -104.9189 289° West 311 358 11,200 1,920 Climbing Denver Center
02:59PM 39.9980 -105.0553 276° West  Level Estimated
02:59PM 39.8686 -105.0453 282° West 354 407 13,300  Level Denver Center
03:00PM 40.0873 -105.1851 276° West  Level Estimated
03:00PM 39.8919 -105.1842 282° West 362 417 16,100  Level Denver Center
03:01PM 40.1766 -105.3153 270° West  Level Estimated
03:01PM 39.9144 -105.3178 282° West 375 432 17,900  Level Denver Center
03:02PM 39.9578 -105.4589 292° West 386 444 20,100 2,040 Climbing Denver Center
03:03PM 40.0161 -105.5781 303° West 388 447 22,200 1,920 Climbing Denver Center
03:04PM 40.0864 -105.6942 308° West 405 466 24,200 1,680 Climbing Denver Center
03:05PM 40.1444 -105.8231 301° West 416 479 25,700 1,500 Climbing Denver Center
03:06PM 40.2094 -105.9547 303° West 430 495 27,300 1,620 Climbing Denver Center
03:07PM 40.3083 -106.0978 312° West 439 505 29,100 1,380 Climbing Denver Center
03:08PM 40.3828 -106.2072 312° West 450 518 30,200 1,440 Climbing Denver Center
03:09PM 40.4853 -106.3561 312° West 455 524 32,100 1,440 Climbing Denver Center
03:10PM 40.5692 -106.4814 311° West 456 525 33,200 900 Climbing Denver Center
03:11PM 40.6572 -106.6092 312° West 466 536 34,000 660 Climbing Denver Center
03:12PM 40.7447 -106.7378 312° West 468 539 34,600 1,080 Climbing Denver Center
03:13PM 40.8278 -106.8656 311° West 467 537 36,300 1,380 Climbing Denver Center
03:14PM 40.9194 -107.0031 311° West 450 518 37,500 780 Climbing Denver Center
03:15PM 40.9989 -107.1211 312° West 449 517 38,000 240 Climbing Denver Center
03:16PM 41.0889 -107.2589 311° West 448 516 38,000  Level Denver Center
03:17PM 41.1683 -107.3786 311° West 448 516 38,000  Level Denver Center
03:18PM 41.2606 -107.5192 311° West 450 518 38,000  Level Denver Center
03:19PM 41.3378 -107.6397 310° West 450 518 38,000  Level Denver Center
03:20PM 41.4308 -107.7806 311° West 451 519 38,000  Level Denver Center
03:21PM 41.4944 -107.8819 310° West 451 519 38,000  Level Salt Lake Center
03:22PM 41.5725 -108.0042 311° West 452 520 38,000  Level Salt Lake Center
03:23PM 41.6628 -108.1461 310° West 452 520 38,000  Level Salt Lake Center
03:24PM 41.7406 -108.2683 310° West 452 520 38,000  Level Salt Lake Center
03:25PM 41.8328 -108.4119 311° West 454 522 38,000  Level Salt Lake Center
03:26PM 41.9114 -108.5372 310° West 458 527 38,000  Level Salt Lake Center
03:27PM 42.0031 -108.6822 310° West 462 532 38,000  Level Salt Lake Center
03:29PM 42.0803 -108.8058 310° West 457 526 38,000  Level Salt Lake Center
03:30PM 42.1711 -108.9503 310° West 457 526 38,000  Level Salt Lake Center
03:31PM 42.2472 -109.0747 310° West 454 522 38,000  Level Salt Lake Center
03:32PM 42.3383 -109.2233 310° West 456 525 38,000  Level Salt Lake Center
03:33PM 42.4172 -109.3494 310° West 461 531 38,000  Level Salt Lake Center
03:34PM 42.5056 -109.5000 309° West 460 529 38,000  Level Salt Lake Center
03:35PM 42.5564 -109.6497 295° West 460 529 38,000  Level Salt Lake Center
03:36PM 42.6008 -109.8306 289° West 458 527 38,000  Level Salt Lake Center
03:37PM 42.6383 -109.9833 288° West 453 521 38,000  Level Salt Lake Center
03:38PM 42.6822 -110.1653 288° West 453 521 38,000  Level Salt Lake Center
03:39PM 42.7181 -110.3117 288° West 453 521 38,000  Level Salt Lake Center
03:40PM 42.7658 -110.5083 288° West 454 522 38,000  Level Salt Lake Center
03:41PM 42.8056 -110.6742 288° West 457 526 38,000  Level Salt Lake Center
03:42PM 42.8464 -110.8369 289° West 457 526 38,000  Level Salt Lake Center
03:43PM 42.8875 -111.0008 289° West 457 526 38,000  Level Salt Lake Center
03:44PM 42.9281 -111.1661 289° West 457 526 38,000  Level Salt Lake Center
03:45PM 42.9806 -111.3261 294° West 459 528 38,000  Level Salt Lake Center
03:46PM 43.0508 -111.5153 297° West 462 532 38,000  Level Salt Lake Center
03:47PM 43.1133 -111.6692 299° West 463 533 38,000  Level Salt Lake Center
03:48PM 43.1900 -111.8111 307° West 463 533 38,000  Level Salt Lake Center
03:49PM 43.2700 -111.9497 308° West 464 534 38,000  Level Salt Lake Center
03:50PM 43.3542 -112.0869 310° West 465 535 38,000  Level Salt Lake Center
03:51PM 43.4369 -112.2256 309° West 465 535 38,000  Level Salt Lake Center
03:52PM 43.5356 -112.3931 309° West 466 536 38,000  Level Salt Lake Center
03:53PM 43.6178 -112.5328 309° West 466 536 38,000  Level Salt Lake Center
03:54PM 43.7003 -112.6731 309° West 468 539 38,000  Level Salt Lake Center
03:55PM 43.7836 -112.8142 309° West 469 540 38,000  Level Salt Lake Center
03:56PM 43.8667 -112.9550 309° West 470 541 38,000  Level Salt Lake Center
03:58PM 43.9503 -113.0969 309° West 470 541 38,000  Level Salt Lake Center
03:59PM 44.0492 -113.2689 309° West 472 543 38,000  Level Salt Lake Center
04:00PM 44.1178 -113.4242 302° West 472 543 38,000  Level Salt Lake Center
04:01PM 44.1811 -113.5822 299° West 471 542 38,000  Level Salt Lake Center
04:02PM 44.2456 -113.7400 300° West 471 542 38,000  Level Salt Lake Center
04:03PM 44.2889 -113.9339 287° West 467 537 38,000  Level Salt Lake Center
04:04PM 44.2875 -114.1125 269° West 460 529 38,000  Level Salt Lake Center
04:05PM 44.3036 -114.2889 277° West 462 532 38,000  Level Salt Lake Center
04:06PM 44.3467 -114.4592 290° West 463 533 38,000  Level Salt Lake Center
04:07PM 44.3900 -114.6300 290° West 466 536 38,000  Level Salt Lake Center
04:08PM 44.4328 -114.7997 289° West 466 536 38,000  Level Salt Lake Center
04:09PM 44.4800 -115.0075 288° West 467 537 38,000  Level Salt Lake Center
04:10PM 44.5136 -115.1844 285° West 468 539 38,000  Level Salt Lake Center
04:11PM 44.5483 -115.3603 286° West 469 540 38,000  Level Salt Lake Center
04:12PM 44.5847 -115.5342 286° West 469 540 38,000  Level Salt Lake Center
04:13PM 44.6208 -115.7078 286° West 468 539 38,000  Level Salt Lake Center
04:14PM 44.6653 -115.9172 287° West 469 540 38,000  Level Salt Lake Center
04:15PM 44.7025 -116.0897 287° West 469 540 38,000  Level Salt Lake Center
04:16PM 44.7408 -116.2617 287° West 469 540 38,000  Level Salt Lake Center
04:17PM 44.8053 -116.4175 300° West 468 539 38,000  Level Salt Lake Center
04:18PM 44.9175 -116.5750 315° West 475 547 38,000  Level Salt Lake Center
04:19PM 45.0111 -116.7064 315° West 475 547 38,000  Level Salt Lake Center
04:20PM 45.1053 -116.8403 315° West 478 550 38,000  Level Salt Lake Center
04:21PM 45.1986 -116.9742 315° West 479 551 38,000  Level Salt Lake Center
04:22PM 45.2936 -117.1092 315° West 481 554 38,000  Level Salt Lake Center
04:23PM 45.3886 -117.2453 315° West 482 555 38,000  Level Salt Lake Center
04:24PM 45.5033 -117.4108 315° West 486 559 38,000  Level Salt Lake Center
04:25PM 45.5956 -117.5486 314° West 486 559 38,000  Level Salt Lake Center
04:26PM 45.6906 -117.6869 315° West 486 559 38,000  Level Salt Lake Center
04:28PM 45.7897 -117.8325 314° West 486 559 38,000  Level Salt Lake Center
04:29PM 45.8842 -117.9717 314° West 486 559 38,000  Level Salt Lake Center
04:30PM 45.9736 -118.1033 314° West 487 560 38,000  Level Salt Lake Center
04:31PM 46.1078 -118.3033 314° West 492 566 38,000 -60 Level Seattle Center
04:32PM 46.2019 -118.4461 314° West 492 566 37,900 -60 Descending Seattle Center
04:33PM 46.2956 -118.5875 314° West 492 566 37,900  Level Seattle Center
04:34PM 46.3889 -118.7292 314° West 492 566 38,000  Climbing Seattle Center
04:35PM 46.4833 -118.8742 313° West 491 565 38,000  Level Seattle Center
04:36PM 46.5786 -119.0181 314° West 491 565 38,000  Level Seattle Center
04:37PM 46.6722 -119.1631 313° West 492 566 38,000 -60 Level Seattle Center
04:38PM 46.7647 -119.3078 313° West 492 566 37,900 -60 Descending Seattle Center
04:39PM 46.8575 -119.4539 313° West 492 566 37,900  Level Seattle Center
04:40PM 46.9508 -119.6011 313° West 492 566 37,900  Level Seattle Center
04:41PM 47.0436 -119.7472 313° West 492 566 37,900  Level Seattle Center
04:42PM 47.1581 -119.9247 314° West 495 570 38,000  Climbing Seattle Center
04:43PM 47.2492 -120.0719 312° West 493 567 38,000  Level Seattle Center
04:44PM 47.3417 -120.2192 313° West 492 566 38,000  Level Seattle Center
04:45PM 47.4339 -120.3681 313° West 492 566 38,000  Level Seattle Center
04:46PM 47.5272 -120.5164 313° West 492 566 38,000  Level Seattle Center
04:47PM 47.6183 -120.6658 312° West 492 566 38,000  Level Seattle Center
04:48PM 47.7103 -120.8153 312° West 492 566 38,000  Level Seattle Center
04:49PM 47.8086 -120.9667 314° West 495 570 38,000  Level Seattle Center
04:50PM 47.8969 -121.1156 312° West 491 565 38,000  Level Seattle Center
04:51PM 47.9864 -121.2633 312° West 484 557 38,000  Level Seattle Center
04:52PM 48.0933 -121.4428 312° West 484 557 38,000  Level Seattle Center
04:53PM 48.1831 -121.5944 312° West 486 559 38,000  Level Seattle Center
04:54PM 48.2717 -121.7450 312° West 486 559 38,000  Level Seattle Center
04:55PM 48.3603 -121.8967 311° West 486 559 38,000  Level Seattle Center
04:56PM 48.4483 -122.0483 311° West 486 559 38,000  Level Seattle Center
04:57PM 48.5372 -122.2006 311° West 486 559 38,000  Level Seattle Center
04:58PM 48.6267 -122.3542 311° West 488 562 38,000  Level Seattle Center
04:59PM 48.6833 -122.4667 307° West 490 564 38,000  Level Vancouver Center
05:00PM 48.7667 -122.6167 310° West 490 564 38,000  Level Vancouver Center
05:01PM 48.8500 -122.7833 307° West 500 575 38,000  Level Vancouver Center
05:02PM 48.9500 -122.9333 315° West 500 575 38,000  Level Vancouver Center
05:03PM 49.0333 -123.0833 310° West 500 575 38,000  Level Vancouver Center
05:04PM 49.1167 -123.2667 305° West 510 587 38,000  Level Vancouver Center
05:05PM 49.1833 -123.4500 299° West 510 587 38,000  Level Vancouver Center
05:06PM 49.2500 -123.6500 297° West 500 575 38,000  Level Vancouver Center
05:07PM 49.3167 -123.8000 304° West 490 564 38,000  Level Vancouver Center
05:08PM 49.4000 -124.0000 303° West 490 564 38,000  Level Vancouver Center
05:09PM 49.4667 -124.1833 299° West 500 575 38,000  Level Vancouver Center
05:10PM 49.5500 -124.3667 305° West 500 575 38,000  Level Vancouver Center
05:11PM 49.6167 -124.5500 299° West 490 564 38,000  Level Vancouver Center
05:12PM 49.6833 -124.7333 299° West 490 564 38,000  Level Vancouver Center
05:13PM 49.7500 -124.8833 305° West 490 564 38,000  Level Vancouver Center
05:14PM 49.8167 -125.0667 299° West 490 564 38,000  Level Vancouver Center
05:15PM 49.9000 -125.2500 305° West 490 564 38,000  Level Vancouver Center
05:16PM 49.9667 -125.4333 300° West 490 564 38,000  Level Vancouver Center
05:17PM 50.0333 -125.6167 300° West 490 564 38,000  Level Vancouver Center
05:18PM 50.1000 -125.8000 300° West 490 564 38,000  Level Vancouver Center
05:19PM 50.1667 -125.9833 300° West 490 564 38,000  Level Vancouver Center
05:20PM 50.2333 -126.1667 300° West 490 564 38,000  Level Vancouver Center
05:21PM 50.3000 -126.3667 298° West 490 564 38,000  Level Vancouver Center
05:22PM 50.3833 -126.5500 306° West 490 564 38,000 120 Level Vancouver Center
05:23PM 50.4333 -126.7333 293° West 490 564 38,300 540 Climbing Vancouver Center
05:24PM 50.5167 -126.9167 306° West 490 564 39,100 720 Climbing Vancouver Center
05:25PM 50.5833 -127.1167 298° West 490 564 39,800 420 Climbing Vancouver Center
05:26PM 50.6333 -127.3000 293° West 490 564 40,000 60 Climbing Vancouver Center
05:27PM 50.7000 -127.4833 300° West 490 564 40,000  Level Vancouver Center
05:28PM 50.7667 -127.7000 296° West 500 575 40,000  Level Vancouver Center
05:29PM 50.8000 -127.9000 285° West 490 564 40,000  Level Vancouver Center
05:30PM 50.8667 -128.0833 300° West 500 575 40,000  Level Vancouver Center
05:31PM 50.9000 -128.3000 284° West 490 564 40,000  Level Vancouver Center
05:32PM 50.9667 -128.5000 298° West 490 564 40,000  Level Vancouver Center
05:33PM 51.0000 -128.6833 286° West 490 564 40,000  Level Vancouver Center
05:34PM 51.0667 -128.9000 296° West 490 564 40,000  Level Vancouver Center
05:35PM 51.1000 -129.1000 285° West 490 564 40,000  Level Vancouver Center
05:36PM 51.1667 -129.3167 296° West 490 564 40,000  Level Vancouver Center
05:37PM 51.2000 -129.5000 286° West 490 564 40,000  Level Vancouver Center
05:38PM 51.2667 -129.7333 295° West 490 564 40,000  Level Vancouver Center
05:39PM 51.3000 -129.9167 286° West 490 564 40,000  Level Vancouver Center
05:40PM 51.3500 -130.1167 292° West 490 564 40,000  Level Vancouver Center
05:41PM 51.4000 -130.3000 294° West 480 552 40,000  Level Vancouver Center
05:42PM 51.4333 -130.5000 285° West 480 552 40,000  Level Vancouver Center
05:43PM 51.4833 -130.7167 290° West 480 552 40,000  Level Vancouver Center
05:44PM 51.5333 -130.9167 292° West 480 552 40,000  Level Vancouver Center
05:45PM 51.5833 -131.1167 292° West 480 552 40,000  Level Vancouver Center
05:46PM 51.6167 -131.3333 284° West 490 564 40,000  Level Vancouver Center
05:47PM 51.6667 -131.5333 292° West 480 552 40,000  Level Vancouver Center
05:48PM 51.7167 -131.7500 291° West 490 564 40,000  Level Vancouver Center
05:49PM 51.7667 -131.9500 292° West 480 552 40,000  Level Vancouver Center
05:50PM 51.8000 -132.1500 285° West 480 552 40,000  Level Vancouver Center
05:51PM 51.8333 -132.3500 285° West 490 564 40,000  Level Vancouver Center
05:52PM 51.8833 -132.5500 292° West 480 552 40,000  Level Vancouver Center
05:53PM 51.9167 -132.7667 284° West 480 552 40,000  Level Vancouver Center
05:54PM 51.9667 -132.9667 292° West 480 552 40,000  Level Vancouver Center
05:55PM 51.9833 -133.2000 277° West 480 552 40,000  Level Vancouver Center
05:56PM 52.0000 -133.3833 278° West 480 552 40,000  Level Vancouver Center
05:57PM 51.9833 -133.6333 264° West 470 541 40,000  Level Vancouver Center
05:58PM 51.9833 -133.8167 270° West 470 541 40,000  Level Vancouver Center
05:59PM 51.9833 -134.0167 270° West 470 541 40,000  Level Vancouver Center
06:00PM 51.9833 -134.2333 270° West 470 541 40,000  Level Vancouver Center
06:01PM 51.9833 -134.4500 270° West 470 541 40,000  Level Vancouver Center
06:02PM 51.9833 -134.6667 270° West 460 529 40,000  Level Vancouver Center
06:03PM 51.9833 -134.8667 270° West 470 541 40,000  Level Vancouver Center
06:04PM 51.9833 -135.0833 270° West 460 529 40,000  Level Vancouver Center
06:05PM 52.0000 -135.2667 278° West 460 529 40,000  Level Vancouver Center
06:06PM 51.9833 -135.4833 292° West 460 529 40,000  Level Vancouver Center
06:06PM 52.0000 -135.4500 292° West 478 550 40,000  Level Oakland Oceanic (ODAPS)
06:07PM 52.0333 -135.7000 291° West 470 541 40,000  Level Vancouver Center
06:07PM 52.0667 -135.7000 291° West 478 550 40,000  Level Oakland Oceanic (ODAPS)
06:08PM 52.1000 -135.9000 291° West 480 552 40,000  Level Vancouver Center
06:09PM 52.1167 -136.1000 278° West 480 552 40,000  Level Vancouver Center
06:10PM 52.1833 -136.2833 301° West 480 552 40,000  Level Vancouver Center
06:11PM 52.2167 -136.4833 285° West 470 541 40,000  Level Vancouver Center
06:12PM 52.2500 -136.6833 285° West 480 552 40,000  Level Vancouver Center
06:13PM 52.3167 -136.9000 297° West 480 552 40,000  Level Vancouver Center
06:14PM 52.3500 -137.1000 285° West 480 552 40,000  Level Vancouver Center
06:15PM 52.4000 -137.3167 291° West 480 552 40,000  Level Vancouver Center
06:16PM 52.4500 -137.5167 292° West 480 552 40,000  Level Vancouver Center
06:17PM 52.4833 -137.7333 284° West 480 552 40,000  Level Vancouver Center
06:18PM 52.5333 -137.9167 290° West 480 552 40,000  Level Vancouver Center
06:18PM 52.5500 -137.8667 290° West 479 551 40,000  Level Oakland Oceanic (ODAPS)
06:19PM 52.5833 -138.1167 292° West 470 541 40,000  Level Vancouver Center
06:29PM 53.0000 -140.0000 293° West 508 585 40,000  Level Oakland Oceanic (ODAPS)
06:32PM 53.2000 -140.7833 292° West 509 586 40,000  Level Oakland Oceanic (ODAPS)
06:46PM 53.8833 -143.8333 290° West 513 590 40,000  Level Oakland Oceanic (ODAPS)
07:00PM 54.5167 -147.0500 287° West 520 598 40,000  Level Oakland Oceanic (ODAPS)
07:12PM 55.0000 -150.0000 284° West 516 594 40,000  Level Oakland Oceanic (ODAPS)
07:13PM 55.0500 -150.3667 284° West 515 593 40,000  Level Oakland Oceanic (ODAPS)
07:27PM 55.4833 -153.7833 281° West 518 596 40,000  Level Oakland Oceanic (ODAPS)
07:30PM 55.5333 -154.4000 279° West 540 621 40,000  Level Anchorage Center
07:31PM 55.5569 -154.5076 280° West 515 593 40,000  Level FlightAware Transoceanic
07:31PM 55.5667 -154.6500 283° West 510 587 40,000  Level Anchorage Center
07:32PM 55.5823 -154.7543 280° West 515 593 40,000  Level FlightAware Transoceanic
07:32PM 55.5833 -154.9000 277° West 520 598 40,000  Level Anchorage Center
07:33PM 55.6072 -155.0014 280° West 515 593 40,000  Level FlightAware Transoceanic
07:34PM 55.6418 -155.3213 280° West 518 596 40,000  Level FlightAware Transoceanic
07:34PM 55.6333 -155.4000 280° West 520 598 40,000  Level Anchorage Center
07:35PM 55.6664 -155.5789 279° West 518 596 40,000  Level FlightAware Transoceanic
07:35PM 55.6667 -155.6667 283° West 520 598 40,000  Level Anchorage Center
07:36PM 55.6833 -155.9167 277° West 520 598 40,000  Level Anchorage Center
07:37PM 55.7000 -156.1667 277° West 520 598 40,000  Level Anchorage Center
07:38PM 55.7333 -156.4333 283° West 520 598 40,000  Level Anchorage Center
07:39PM 55.7500 -156.6833 277° West 510 587 40,000  Level Anchorage Center
07:40PM 55.7667 -156.9333 277° West 520 598 40,000  Level Anchorage Center
07:41PM 55.8000 -157.2000 283° West 510 587 40,000  Level Anchorage Center
07:42PM 55.8167 -157.4500 277° West 520 598 40,000  Level Anchorage Center
07:43PM 55.8333 -157.7000 277° West 510 587 40,000  Level Anchorage Center
07:44PM 55.8500 -157.9500 277° West 500 575 40,000  Level Anchorage Center
07:45PM 55.8833 -158.2167 283° West 510 587 40,000  Level Anchorage Center
07:46PM 55.9000 -158.4667 277° West 510 587 40,000  Level Anchorage Center
07:47PM 55.9167 -158.7333 276° West 520 598 40,000  Level Anchorage Center
07:48PM 55.9333 -158.9833 277° West 530 610 40,000  Level Anchorage Center
07:49PM 55.9500 -159.2500 276° West 540 621 40,000  Level Anchorage Center
07:50PM 55.9667 -159.5000 277° West 520 598 40,000  Level Anchorage Center
07:51PM 55.9833 -159.7667 276° West 520 598 40,000  Level Anchorage Center
07:52PM 56.0000 -160.0167 277° West 520 598 40,000  Level Anchorage Center
07:53PM 56.0000 -160.2667 270° West 510 587 40,000  Level Anchorage Center
07:54PM 56.0167 -160.5333 276° West 510 587 40,000  Level Anchorage Center
07:55PM 56.0167 -160.7833 270° West 520 598 40,000  Level Anchorage Center
07:56PM 56.0333 -161.0500 276° West 510 587 40,000  Level Anchorage Center
07:57PM 56.0333 -161.3333 270° West 510 587 40,000  Level Anchorage Center
07:58PM 56.0500 -161.5833 277° West 510 587 40,000  Level Anchorage Center
07:59PM 56.0500 -161.8500 270° West 510 587 40,000  Level Anchorage Center
08:00PM 56.0667 -162.1000 277° West 510 587 40,000  Level Anchorage Center
08:01PM 56.0667 -162.3667 270° West 510 587 40,000  Level Anchorage Center
08:02PM 56.0667 -162.6167 270° West 510 587 40,000  Level Anchorage Center
08:03PM 56.0833 -162.8667 277° West 510 587 40,000  Level Anchorage Center
08:05PM 56.0833 -163.3167 270° West 510 587 40,000  Level Anchorage Center
08:06PM 56.0833 -163.5833 270° West 520 598 40,000  Level Anchorage Center
08:07PM 56.0833 -163.8333 270° West 520 598 40,000  Level Anchorage Center
08:08PM 56.0833 -164.1000 270° West 510 587 40,000  Level Anchorage Center
08:09PM 56.0833 -164.3500 270° West 510 587 40,000  Level Anchorage Center
08:10PM 56.1000 -164.6000 277° West 510 587 40,000  Level Anchorage Center
08:11PM 56.1000 -164.8667 270° West 510 587 40,000  Level Anchorage Center
08:12PM 56.1000 -165.1167 270° West 510 587 40,000  Level Anchorage Center
08:13PM 56.1000 -165.3667 270° West 510 587 40,000  Level Anchorage Center
08:14PM 56.1000 -165.6333 270° West 510 587 40,000  Level Anchorage Center
08:15PM 56.1000 -165.8833 270° West 510 587 40,000  Level Anchorage Center
08:16PM 56.0833 -166.1333 263° West 500 575 40,000  Level Anchorage Center
08:17PM 56.0833 -166.4000 270° West 500 575 40,000  Level Anchorage Center
08:18PM 56.0833 -166.6667 270° West 510 587 40,000  Level Anchorage Center
08:19PM 56.0833 -166.9167 270° West 510 587 40,000  Level Anchorage Center
08:20PM 56.0833 -167.1667 270° West 500 575 40,000  Level Anchorage Center
08:21PM 56.0667 -167.4167 263° West 510 587 40,000  Level Anchorage Center
08:22PM 56.0667 -167.6833 270° West 500 575 40,000  Level Anchorage Center
08:23PM 56.0667 -167.9333 270° West 510 587 40,000  Level Anchorage Center
08:24PM 56.0500 -168.1833 263° West 510 587 40,000  Level Anchorage Center
08:25PM 56.0500 -168.4500 270° West 500 575 40,000  Level Anchorage Center
08:26PM 56.0333 -168.7000 263° West 510 587 40,000  Level Anchorage Center
08:27PM 56.0333 -168.9500 270° West 500 575 40,000  Level Anchorage Center
08:28PM 56.0167 -169.2167 264° West 510 587 40,000  Level Anchorage Center
08:29PM 56.0167 -169.4667 270° West 500 575 40,000  Level Anchorage Center
08:30PM 56.0000 -169.7167 263° West 510 587 40,000  Level Anchorage Center
08:31PM 56.0000 -169.9833 270° West 510 587 40,000  Level Anchorage Center
08:32PM 56.0000 -170.2333 270° West 510 587 40,000  Level Anchorage Center
08:33PM 56.0167 -170.4833 277° West 500 575 40,000  Level Anchorage Center
08:34PM 56.0167 -170.7333 270° West 500 575 40,000  Level Anchorage Center
08:35PM 56.0333 -171.0000 276° West 520 598 40,000  Level Anchorage Center
08:36PM 56.0333 -171.2500 270° West 510 587 40,000  Level Anchorage Center
08:37PM 56.0500 -171.5167 276° West 510 587 40,000  Level Anchorage Center
08:38PM 56.0500 -171.7667 270° West 510 587 40,000  Level Anchorage Center
08:39PM 56.0667 -172.0167 277° West 500 575 40,000  Level Anchorage Center
08:40PM 56.0667 -172.2667 270° West 510 587 40,000  Level Anchorage Center
08:41PM 56.0667 -172.5167 270° West 510 587 40,000  Level Anchorage Center
08:42PM 56.0667 -172.7667 270° West 500 575 40,000  Level Anchorage Center
08:43PM 56.0833 -173.0333 277° West 510 587 40,000  Level Anchorage Center
08:44PM 56.0833 -173.2833 270° West 500 575 40,000  Level Anchorage Center
08:45PM 56.0833 -173.5333 270° West 510 587 40,000  Level Anchorage Center
08:46PM 56.0833 -173.7833 270° West 500 575 40,000  Level Anchorage Center
08:47PM 56.0833 -174.0333 270° West 490 564 40,000  Level Anchorage Center
08:48PM 56.1000 -174.2833 277° West 500 575 40,000  Level Anchorage Center
08:49PM 56.1000 -174.5333 270° West 500 575 40,000  Level Anchorage Center
08:50PM 56.1000 -174.7833 270° West 500 575 40,000  Level Anchorage Center
08:51PM 56.1000 -175.0333 270° West 500 575 40,000  Level Anchorage Center
08:52PM 56.1000 -175.2833 270° West 500 575 40,000  Level Anchorage Center
08:53PM 56.0833 -175.5333 263° West 500 575 40,000  Level Anchorage Center
08:54PM 56.1000 -175.7500 278° West 510 587 40,000  Level Anchorage Center
08:55PM 56.0833 -176.0000 263° West 500 575 40,000  Level Anchorage Center
08:56PM 56.0833 -176.2500 270° West 500 575 40,000  Level Anchorage Center
09:03PM 56.0667 -177.9000 268° West 510 587 40,000  Level Anchorage Center
09:11PM 56.0000 180.0000 260° West 517 595 40,000  Level Anchorage Center
09:12PM 55.9747 179.7433 260° West 510 587 40,000  Level FlightAware Transoceanic
09:12PM 55.9667 179.6667 260° West 518 596 40,000  Level Anchorage Center
09:21PM 55.7000 177.3000 258° West 519 597 40,000  Level Anchorage Center
09:22PM 55.6958 177.2234 258° West 518 596 40,000  Level FlightAware Transoceanic
09:22PM 55.6833 177.1667 258° West 510 587 40,000  Level Anchorage Center
09:23PM 55.6660 176.9810 258° West 518 596 40,000  Level FlightAware Transoceanic
09:23PM 55.6500 176.9500 255° West 510 587 40,000  Level Anchorage Center
09:24PM 55.6358 176.7389 257° West 518 596 40,000  Level FlightAware Transoceanic
09:24PM 55.6167 176.6833 258° West 510 587 40,000  Level Anchorage Center
09:25PM 55.6051 176.4973 257° West 518 596 40,000  Level FlightAware Transoceanic
09:25PM 55.5833 176.4167 258° West 520 598 40,000  Level Anchorage Center
09:26PM 55.5739 176.2560 257° West 518 596 40,000  Level FlightAware Transoceanic
09:26PM 55.5500 176.2000 255° West 520 598 40,000  Level Anchorage Center
09:27PM 55.5423 176.0151 257° West 518 596 40,000  Level FlightAware Transoceanic
09:27PM 55.5167 175.9167 258° West 520 598 40,000  Level Anchorage Center
09:28PM 55.4833 175.7167 254° West 510 587 40,000  Level Anchorage Center
09:29PM 55.4500 175.4500 258° West 510 587 40,000  Level Anchorage Center
09:30PM 55.4333 175.2333 262° West 510 587 40,000  Level Anchorage Center
09:31PM 55.3833 174.9667 252° West 510 587 40,000  Level Anchorage Center
09:32PM 55.3500 174.7000 258° West 510 587 40,000  Level Anchorage Center
09:33PM 55.3167 174.4833 255° West 510 587 40,000  Level Anchorage Center
09:34PM 55.2833 174.2167 258° West 520 598 40,000  Level Anchorage Center
09:35PM 55.2500 174.0167 254° West 520 598 40,000  Level Anchorage Center
09:36PM 55.2000 173.7500 252° West 510 587 40,000  Level Anchorage Center
09:37PM 55.1833 173.5333 262° West 510 587 40,000  Level Anchorage Center
09:38PM 55.1333 173.2833 251° West 510 587 40,000  Level Anchorage Center
09:39PM 55.1000 173.0167 258° West 520 598 40,000  Level Anchorage Center
09:40PM 55.0667 172.8000 255° West 510 587 40,000  Level Anchorage Center
09:41PM 55.0167 172.5500 251° West 510 587 40,000  Level Anchorage Center
09:42PM 54.9833 172.3333 255° West 530 610 40,000  Level Anchorage Center
09:43PM 54.9333 172.0833 251° West 510 587 40,000  Level Anchorage Center
09:44PM 54.8833 171.8833 247° West 510 587 40,000  Level Anchorage Center
09:45PM 54.8000 171.6667 236° Southwest 500 575 40,000  Level Anchorage Center
09:46PM 54.7000 171.4500 231° Southwest 510 587 40,000  Level Anchorage Center
09:47PM 54.6333 171.2833 235° Southwest 510 587 40,000  Level Anchorage Center
09:48PM 54.5333 171.0500 234° Southwest 530 610 40,000  Level Anchorage Center
09:49PM 54.4667 170.9000 233° Southwest 490 564 40,000  Level Anchorage Center
09:50PM 54.3833 170.6833 237° Southwest 490 564 40,000  Level Anchorage Center
09:51PM 54.3167 170.5167 236° Southwest 500 575 40,000  Level Anchorage Center
09:52PM 54.2167 170.3000 232° Southwest 500 575 40,000  Level Anchorage Center
09:53PM 54.1500 170.1500 233° Southwest 500 575 40,000  Level Anchorage Center
09:54PM 54.0500 169.9333 232° Southwest 510 587 40,000  Level Anchorage Center
09:55PM 53.9667 169.7167 237° Southwest 510 587 40,000  Level Anchorage Center
09:56PM 53.8833 169.5667 227° Southwest 500 575 40,000  Level Anchorage Center
09:57PM 53.8000 169.3500 237° Southwest 510 587 40,000  Level Anchorage Center
09:58PM 53.7333 169.1833 236° Southwest 510 587 40,000  Level Anchorage Center
09:59PM 53.6500 168.9667 237° Southwest 520 598 40,000  Level Anchorage Center
10:00PM 53.6000 168.7833 245° Southwest 500 575 40,000  Level Anchorage Center
10:01PM 53.5167 168.5667 237° Southwest 510 587 40,000  Level Anchorage Center
10:02PM 53.4333 168.3333 239° Southwest 530 610 40,000  Level Anchorage Center
10:03PM 53.3833 168.1667 243° Southwest 490 564 40,000  Level Anchorage Center
10:04PM 53.3000 167.9500 237° Southwest 520 598 40,000  Level Anchorage Center
10:09PM 52.9167 166.8667 239° Southwest 496 571 40,000  Level Anchorage Center
10:19PM 52.2167 165.0167 237° Southwest 494 568 40,000  Level Anchorage Center
10:27PM 51.6500 163.6500 236° Southwest 485 558 40,000  Level Anchorage Center
10:29PM 51.5000 163.2500 236° Southwest 487 560 40,000  Level Anchorage Center
10:38PM 50.7500 161.5667 235° Southwest 485 558 40,000  Level Anchorage Center
10:48PM 49.9833 159.9167 234° Southwest 478 550 40,000  Level Anchorage Center
10:49PM 49.9588 159.8530 233° Southwest 485 558 40,000  Level FlightAware Transoceanic
10:50PM 49.8784 159.6848 233° Southwest 485 558 40,000  Level FlightAware Transoceanic
10:51PM 49.7976 159.5171 233° Southwest 485 558 40,000  Level FlightAware Transoceanic
10:52PM 49.7167 159.3500 233° Southwest 485 558 40,000  Level FlightAware Transoceanic
10:53PM 49.6336 159.1805 233° Southwest 485 558 40,000  Level FlightAware Transoceanic
10:54PM 49.5503 159.0116 233° Southwest 485 558 40,000  Level FlightAware Transoceanic
10:55PM 49.4668 158.8432 233° Southwest 478 550 40,000  Level FlightAware Transoceanic
10:56PM 49.3830 158.6754 232° Southwest 478 550 40,000  Level FlightAware Transoceanic
10:57PM 49.2989 158.5082 232° Southwest 478 550 40,000  Level FlightAware Transoceanic
10:58PM 49.2146 158.3416 232° Southwest 478 550 40,000  Level FlightAware Transoceanic
10:59PM 49.1301 158.1755 232° Southwest 478 550 40,000  Level FlightAware Transoceanic
11:00PM 49.0454 158.0100 232° Southwest 478 550 40,000  Level FlightAware Transoceanic
11:01PM 48.9604 157.8450 232° Southwest 478 550 40,000  Level FlightAware Transoceanic
11:02PM 48.8752 157.6806 232° Southwest 478 550 40,000  Level FlightAware Transoceanic
11:03PM 48.7897 157.5168 232° Southwest 478 550 40,000  Level FlightAware Transoceanic
11:04PM 48.7040 157.3536 231° Southwest 478 550 40,000  Level FlightAware Transoceanic
11:05PM 48.6181 157.1909 231° Southwest 478 550 40,000  Level FlightAware Transoceanic
11:06PM 48.5320 157.0287 231° Southwest 478 550 40,000  Level FlightAware Transoceanic
11:07PM 48.4456 156.8671 231° Southwest 478 550 40,000  Level FlightAware Transoceanic
11:08PM 48.3590 156.7060 231° Southwest 478 550 40,000  Level FlightAware Transoceanic
11:09PM 48.2722 156.5455 231° Southwest 478 550 40,000  Level FlightAware Transoceanic
11:10PM 48.1851 156.3856 231° Southwest 478 550 40,000  Level FlightAware Transoceanic
11:11PM 48.0979 156.2262 231° Southwest 478 550 40,000  Level FlightAware Transoceanic
11:12PM 48.0104 156.0673 230° Southwest 478 550 40,000  Level FlightAware Transoceanic
11:13PM 47.9227 155.9089 230° Southwest 478 550 40,000  Level FlightAware Transoceanic
11:14PM 47.8348 155.7511 230° Southwest 478 550 40,000  Level FlightAware Transoceanic
11:15PM 47.7466 155.5939 230° Southwest 478 550 40,000  Level FlightAware Transoceanic
11:16PM 47.6583 155.4371 230° Southwest 478 550 40,000  Level FlightAware Transoceanic
11:17PM 47.5697 155.2809 230° Southwest 478 550 40,000  Level FlightAware Transoceanic
11:18PM 47.4809 155.1253 230° Southwest 478 550 40,000  Level FlightAware Transoceanic
11:19PM 47.3920 154.9701 230° Southwest 478 550 40,000  Level FlightAware Transoceanic
11:20PM 47.3028 154.8155 230° Southwest 478 550 40,000  Level FlightAware Transoceanic
11:21PM 47.2134 154.6614 229° Southwest 478 550 40,000  Level FlightAware Transoceanic
11:22PM 47.1238 154.5078 229° Southwest 478 550 40,000  Level FlightAware Transoceanic
11:23PM 47.0340 154.3547 229° Southwest 478 550 40,000  Level FlightAware Transoceanic
11:24PM 46.9439 154.2022 229° Southwest 478 550 40,000  Level FlightAware Transoceanic
11:25PM 46.8537 154.0501 229° Southwest 478 550 40,000  Level FlightAware Transoceanic
11:26PM 46.7633 153.8986 229° Southwest 478 550 40,000  Level FlightAware Transoceanic
11:27PM 46.6727 153.7476 229° Southwest 478 550 40,000  Level FlightAware Transoceanic
11:28PM 46.5819 153.5970 229° Southwest 478 550 40,000  Level FlightAware Transoceanic
11:29PM 46.4909 153.4470 229° Southwest 478 550 40,000  Level FlightAware Transoceanic
11:30PM 46.3997 153.2975 228° Southwest 478 550 40,000  Level FlightAware Transoceanic
11:31PM 46.3083 153.1485 228° Southwest 478 550 40,000  Level FlightAware Transoceanic
11:32PM 46.2204 153.0061 228° Southwest  Level FlightAware Approximate
11:33PM 46.1324 152.8641 228° Southwest  Level FlightAware Approximate
11:34PM 46.1355 152.8710 228° Southwest  Level FlightAware Approximate
11:35PM 46.0466 152.7304 228° Southwest  Level FlightAware Approximate
11:36PM 45.9575 152.5903 228° Southwest  Level FlightAware Approximate
11:37PM 45.8683 152.4506 227° Southwest  Level FlightAware Approximate
11:38PM 45.7788 152.3114 227° Southwest  Level FlightAware Approximate
11:39PM 45.6892 152.1726 227° Southwest  Level FlightAware Approximate
11:40PM 45.5995 152.0342 227° Southwest  Level FlightAware Approximate
11:41PM 45.5095 151.8963 227° Southwest  Level FlightAware Approximate
11:42PM 45.4194 151.7589 227° Southwest  Level FlightAware Approximate
11:43PM 45.3292 151.6219 227° Southwest  Level FlightAware Approximate
11:44PM 45.2388 151.4853 227° Southwest  Level FlightAware Approximate
11:45PM 45.1482 151.3491 227° Southwest  Level FlightAware Approximate
11:46PM 45.0574 151.2134 227° Southwest  Level FlightAware Approximate
11:47PM 44.9665 151.0781 227° Southwest  Level FlightAware Approximate
11:48PM 44.8755 150.9432 226° Southwest  Level FlightAware Approximate
11:49PM 44.7842 150.8088 226° Southwest  Level FlightAware Approximate
11:50PM 44.6929 150.6748 226° Southwest  Level FlightAware Approximate
11:51PM 44.6013 150.5412 226° Southwest  Level FlightAware Approximate
11:52PM 44.5096 150.4080 226° Southwest  Level FlightAware Approximate
11:53PM 44.4178 150.2753 226° Southwest  Level FlightAware Approximate
11:54PM 44.3258 150.1429 226° Southwest  Level FlightAware Approximate
11:55PM 44.2336 150.0110 226° Southwest  Level FlightAware Approximate
11:56PM 44.1413 149.8795 226° Southwest  Level FlightAware Approximate
11:57PM 44.0489 149.7484 225° Southwest  Level FlightAware Approximate
11:58PM 43.9563 149.6177 225° Southwest  Level FlightAware Approximate
11:59PM 43.8635 149.4874 225° Southwest  Level FlightAware Approximate
12:00AM 43.7706 149.3575 225° Southwest  Level FlightAware Approximate
12:01AM 43.6776 149.2281 225° Southwest  Level FlightAware Approximate
12:02AM 43.5842 149.0993 225° Southwest  Level FlightAware Approximate
12:03AM 43.4905 148.9711 225° Southwest  Level FlightAware Approximate
12:04AM 43.3967 148.8434 225° Southwest  Level FlightAware Approximate
12:05AM 43.3027 148.7160 225° Southwest  Level FlightAware Approximate
12:06AM 43.2086 148.5889 225° Southwest  Level FlightAware Approximate
12:07AM 43.1158 148.4603 225° Southwest  Level FlightAware Approximate
12:08AM 43.0228 148.3322 225° Southwest  Level FlightAware Approximate
12:09AM 42.9296 148.2045 225° Southwest  Level FlightAware Approximate
12:10AM 42.8363 148.0771 225° Southwest  Level FlightAware Approximate
12:11AM 42.7429 147.9501 225° Southwest  Level FlightAware Approximate
12:12AM 42.6494 147.8235 225° Southwest  Level FlightAware Approximate
12:13AM 42.5556 147.6973 225° Southwest  Level FlightAware Approximate
12:14AM 42.4618 147.5715 225° Southwest  Level FlightAware Approximate
12:15AM 42.3678 147.4460 225° Southwest  Level FlightAware Approximate
12:16AM 42.2738 147.3208 225° Southwest  Level FlightAware Approximate
12:17AM 42.1797 147.1959 225° Southwest  Level FlightAware Approximate
12:18AM 42.0854 147.0714 224° Southwest  Level FlightAware Approximate
12:19AM 41.9910 146.9473 224° Southwest  Level FlightAware Approximate
12:20AM 41.8958 146.8244 222° Southwest  Level FlightAware Approximate
12:21AM 41.7983 146.7051 222° Southwest  Level FlightAware Approximate
12:22AM 41.7007 146.5861 222° Southwest  Level FlightAware Approximate
12:23AM 41.6029 146.4675 222° Southwest  Level FlightAware Approximate
12:24AM 41.5058 146.3481 224° Southwest  Level FlightAware Approximate
12:25AM 41.4106 146.2262 224° Southwest  Level FlightAware Approximate
12:26AM 41.3152 146.1048 224° Southwest  Level FlightAware Approximate
12:27AM 41.2197 145.9836 224° Southwest  Level FlightAware Approximate
12:28AM 41.1241 145.8628 224° Southwest  Level FlightAware Approximate
12:29AM 41.0284 145.7423 224° Southwest  Level FlightAware Approximate
12:30AM 40.9326 145.6221 223° Southwest  Level FlightAware Approximate
12:31AM 40.8367 145.5022 223° Southwest  Level FlightAware Approximate
12:32AM 40.7406 145.3827 223° Southwest  Level FlightAware Approximate
12:33AM 40.6444 145.2636 223° Southwest  Level FlightAware Approximate
12:34AM 40.5481 145.1447 223° Southwest  Level FlightAware Approximate
12:35AM 40.4517 145.0263 223° Southwest  Level FlightAware Approximate
12:36AM 40.3548 144.9088 223° Southwest  Level FlightAware Approximate
12:37AM 40.2574 144.7919 223° Southwest  Level FlightAware Approximate
12:38AM 40.1600 144.6754 222° Southwest  Level FlightAware Approximate
12:39AM 40.0624 144.5593 222° Southwest  Level FlightAware Approximate
12:40AM 39.9647 144.4434 222° Southwest  Level FlightAware Approximate
12:41AM 39.8669 144.3279 222° Southwest  Level FlightAware Approximate
12:42AM 39.7690 144.2128 222° Southwest  Level FlightAware Approximate
12:43AM 39.6710 144.0979 222° Southwest  Level FlightAware Approximate
12:44AM 39.5728 143.9834 222° Southwest  Level FlightAware Approximate
12:45AM 39.4746 143.8692 222° Southwest  Level FlightAware Approximate
12:46AM 39.3762 143.7554 222° Southwest  Level FlightAware Approximate
12:47AM 39.2778 143.6418 222° Southwest  Level FlightAware Approximate
12:48AM 39.1791 143.5286 221° Southwest  Level FlightAware Approximate
12:49AM 39.0796 143.4170 221° Southwest  Level FlightAware Approximate
12:50AM 38.9799 143.3056 221° Southwest  Level FlightAware Approximate
12:51AM 38.8749 143.2071 197° South  Level FlightAware Approximate
12:52AM 38.7483 143.1589 197° South  Level FlightAware Approximate
12:53AM 38.6218 143.1109 197° South  Level FlightAware Approximate
12:54AM 38.4953 143.0631 196° South  Level FlightAware Approximate
12:55AM 38.3687 143.0154 196° South  Level FlightAware Approximate
12:56AM 38.2421 142.9679 196° South  Level FlightAware Approximate
12:57AM 38.1155 142.9206 196° South  Level FlightAware Approximate
12:58AM 37.9889 142.8734 196° South  Level FlightAware Approximate
12:59AM 37.8623 142.8264 196° South  Level FlightAware Approximate
01:00AM 37.7356 142.7796 196° South  Level FlightAware Approximate
01:01AM 37.6089 142.7329 196° South  Level FlightAware Approximate
01:02AM 37.4823 142.6864 196° South  Level FlightAware Approximate
01:03AM 37.3555 142.6400 196° South  Level FlightAware Approximate
01:04AM 37.2288 142.5938 196° South  Level FlightAware Approximate
01:05AM 37.1027 142.5451 197° South  Level FlightAware Approximate
01:06AM 36.9767 142.4958 197° South  Level FlightAware Approximate
01:07AM 36.8508 142.4466 197° South  Level FlightAware Approximate
01:08AM 36.7237 142.4023 195° South  Level FlightAware Approximate
01:09AM 36.5962 142.3598 195° South  Level FlightAware Approximate
01:10AM 36.4692 142.3120 195° South  Level FlightAware Approximate
01:11AM 36.3410 142.2692 195° South  Level FlightAware Approximate
01:12AM 36.2127 142.2265 195° South  Level FlightAware Approximate
01:13AM 36.0845 142.1837 195° South  Level FlightAware Approximate
01:14AM 36.0195 142.0695 260° West  Level FlightAware Approximate
01:15AM 35.9807 141.9128 252° West  Level FlightAware Approximate
01:16AM 35.9393 141.7558 252° West  Level FlightAware Approximate
01:17AM 35.9001 141.6002 253° West  Level FlightAware Approximate
01:18AM 35.8893 141.4379 265° West  Level FlightAware Approximate
01:19AM 35.8712 141.2769 258° West  Level FlightAware Approximate
01:20AM 35.8459 141.1171 261° West  Level FlightAware Approximate
01:21AM 35.8258 140.9562 261° West  Level FlightAware Approximate
01:22AM 35.8124 140.7947 262° West  Level FlightAware Approximate
01:23AM 35.7918 140.6341 258° West  Level FlightAware Approximate
01:24AM 35.7734 140.5240 258° West  Level FlightAware Approximate
01:25AM 35.7500 140.3833 253° West  Level FlightAware Approximate
01:26AM 35.7647 140.3864 253° West  Level Estimated
01:27AM 35.7647 140.3864 253° West  Level Estimated
01:28AM 35.7647 140.3864 253° West  Level Estimated
01:29AM 35.7647 140.3864 253° West  Level Estimated
01:30AM 35.7647 140.3864 253° West  Level Estimated
01:31AM 35.7647 140.3864 253° West  Level Estimated
01:32AM 35.7647 140.3864 253° West  Level Estimated
01:33AM 35.7647 140.3864 253° West  Level Estimated
01:34AM 35.7647 140.3864 253° West  Level Estimated
01:35AM 35.7647 140.3864 253° West  Level Estimated
01:36AM 35.7647 140.3864 253° West  Level Estimated
01:37AM 35.7647 140.3864 253° West  Level Estimated
01:38AM 35.7647 140.3864 253° West  Level Estimated
01:39AM 35.7647 140.3864 253° West  Level Estimated
01:40AM 35.7647 140.3864 253° West  Level Estimated
01:41AM 35.7647 140.3864 253° West  Level Estimated
01:42AM 35.7647 140.3864 253° West  Level Estimated
01:43AM 35.7647 140.3864 253° West  Level Estimated
01:44AM 35.7647 140.3864 253° West  Level Estimated
01:45AM 35.7647 140.3864 253° West  Level Estimated
01:46AM 35.7647 140.3864 253° West  Level Estimated
01:47AM 35.7647 140.3864 253° West  Level Estimated